sensor_id;sensor_type;location;lat;lon;timestamp;temperature;humidity
73955;DHT22;62306;52.516;13.290;2023-04-01T00:01:01;10.80;99.90
73955;DHT22;62306;52.516;13.290;2023-04-01T00:03:28;10.80;99.90
73955;DHT22;62306;52.516;13.290;2023-04-01T00:05:56;10.80;99.90
73955;DHT22;62306;52.516;13.290;2023-04-01T00:08:24;10.80;99.90
73955;DHT22;62306;52.516;13.290;2023-04-01T00:10:52;10.80;99.90
73955;DHT22;62306;52.516;13.290;2023-04-01T00:13:21;10.80;99.90
73955;DHT22;62306;52.516;13.290;2023-04-01T00:15:49;10.80;99.90
73955;DHT22;62306;52.516;13.290;2023-04-01T00:18:16;10.80;99.90
73955;DHT22;62306;52.516;13.290;2023-04-01T00:20:44;10.80;99.90
73955;DHT22;62306;52.516;13.290;2023-04-01T00:23:11;10.90;99.90
73955;DHT22;62306;52.516;13.290;2023-04-01T00:25:38;10.90;99.90
73955;DHT22;62306;52.516;13.290;2023-04-01T00:28:05;10.80;99.90
73955;DHT22;62306;52.516;13.290;2023-04-01T00:30:33;10.90;99.90
73955;DHT22;62306;52.516;13.290;2023-04-01T00:33:02;10.90;99.90
73955;DHT22;62306;52.516;13.290;2023-04-01T00:35:29;10.80;99.90
73955;DHT22;62306;52.516;13.290;2023-04-01T00:37:56;10.80;99.90
73955;DHT22;62306;52.516;13.290;2023-04-01T00:40:26;10.80;99.90
73955;DHT22;62306;52.516;13.290;2023-04-01T00:42:54;10.80;99.90
73955;DHT22;62306;52.516;13.290;2023-04-01T00:45:27;10.80;99.90
73955;DHT22;62306;52.516;13.290;2023-04-01T00:47:59;10.80;99.90
73955;DHT22;62306;52.516;13.290;2023-04-01T00:50:29;10.80;99.90
73955;DHT22;62306;52.516;13.290;2023-04-01T00:52:58;10.80;99.90
73955;DHT22;62306;52.516;13.290;2023-04-01T00:55:27;10.80;99.90
73955;DHT22;62306;52.516;13.290;2023-04-01T00:57:55;10.80;99.90
73955;DHT22;62306;52.516;13.290;2023-04-01T01:00:24;10.80;99.90
73955;DHT22;62306;52.516;13.290;2023-04-01T01:02:52;10.80;99.90
73955;DHT22;62306;52.516;13.290;2023-04-01T01:05:26;10.80;99.90
73955;DHT22;62306;52.516;13.290;2023-04-01T01:08:02;10.80;99.90
73955;DHT22;62306;52.516;13.290;2023-04-01T01:10:33;10.80;99.90
73955;DHT22;62306;52.516;13.290;2023-04-01T01:13:07;10.80;99.90
73955;DHT22;62306;52.516;13.290;2023-04-01T01:15:41;10.80;99.90
73955;DHT22;62306;52.516;13.290;2023-04-01T01:18:19;10.80;99.90
73955;DHT22;62306;52.516;13.290;2023-04-01T01:21:19;10.80;99.90
73955;DHT22;62306;52.516;13.290;2023-04-01T01:24:07;10.80;99.90
73955;DHT22;62306;52.516;13.290;2023-04-01T01:26:53;10.80;99.90
73955;DHT22;62306;52.516;13.290;2023-04-01T01:29:48;10.80;99.90
73955;DHT22;62306;52.516;13.290;2023-04-01T01:32:28;10.80;99.90
73955;DHT22;62306;52.516;13.290;2023-04-01T01:35:08;10.80;99.90
73955;DHT22;62306;52.516;13.290;2023-04-01T01:37:40;10.80;99.90
73955;DHT22;62306;52.516;13.290;2023-04-01T01:40:10;10.80;99.90
73955;DHT22;62306;52.516;13.290;2023-04-01T01:42:40;10.80;99.90
73955;DHT22;62306;52.516;13.290;2023-04-01T01:45:09;10.80;99.90
73955;DHT22;62306;52.516;13.290;2023-04-01T01:47:37;10.80;99.90
73955;DHT22;62306;52.516;13.290;2023-04-01T01:50:08;10.80;99.90
73955;DHT22;62306;52.516;13.290;2023-04-01T01:52:36;10.80;99.90
73955;DHT22;62306;52.516;13.290;2023-04-01T01:57:45;10.80;99.90
73955;DHT22;62306;52.516;13.290;2023-04-01T02:00:13;10.80;99.90
73955;DHT22;62306;52.516;13.290;2023-04-01T02:02:42;10.80;99.90
73955;DHT22;62306;52.516;13.290;2023-04-01T02:05:15;10.80;99.90
73955;DHT22;62306;52.516;13.290;2023-04-01T02:07:46;10.80;99.90
73955;DHT22;62306;52.516;13.290;2023-04-01T02:10:15;10.70;99.90
73955;DHT22;62306;52.516;13.290;2023-04-01T02:12:44;10.70;99.90
73955;DHT22;62306;52.516;13.290;2023-04-01T02:15:14;10.70;99.90
73955;DHT22;62306;52.516;13.290;2023-04-01T02:17:44;10.70;99.90
73955;DHT22;62306;52.516;13.290;2023-04-01T02:20:15;10.70;99.90
73955;DHT22;62306;52.516;13.290;2023-04-01T02:22:45;10.70;99.90
73955;DHT22;62306;52.516;13.290;2023-04-01T02:25:15;10.70;99.90
73955;DHT22;62306;52.516;13.290;2023-04-01T02:27:45;10.70;99.90
73955;DHT22;62306;52.516;13.290;2023-04-01T02:30:12;10.70;99.90
73955;DHT22;62306;52.516;13.290;2023-04-01T02:32:40;10.70;99.90
73955;DHT22;62306;52.516;13.290;2023-04-01T02:35:10;10.60;99.90
73955;DHT22;62306;52.516;13.290;2023-04-01T02:37:39;10.60;99.90
73955;DHT22;62306;52.516;13.290;2023-04-01T02:40:10;10.50;99.90
73955;DHT22;62306;52.516;13.290;2023-04-01T02:42:37;10.50;99.90
73955;DHT22;62306;52.516;13.290;2023-04-01T02:45:06;10.50;99.90
73955;DHT22;62306;52.516;13.290;2023-04-01T02:47:33;10.50;99.90
73955;DHT22;62306;52.516;13.290;2023-04-01T02:50:00;10.50;99.90
73955;DHT22;62306;52.516;13.290;2023-04-01T02:52:28;10.50;99.90
73955;DHT22;62306;52.516;13.290;2023-04-01T02:54:57;10.50;99.90
73955;DHT22;62306;52.516;13.290;2023-04-01T02:57:24;10.50;99.90
73955;DHT22;62306;52.516;13.290;2023-04-01T02:59:51;10.50;99.90
73955;DHT22;62306;52.516;13.290;2023-04-01T03:02:18;10.50;99.90
73955;DHT22;62306;52.516;13.290;2023-04-01T03:04:45;10.50;99.90
73955;DHT22;62306;52.516;13.290;2023-04-01T03:07:12;10.50;99.90
73955;DHT22;62306;52.516;13.290;2023-04-01T03:09:39;10.50;99.90
73955;DHT22;62306;52.516;13.290;2023-04-01T03:12:07;10.50;99.90
73955;DHT22;62306;52.516;13.290;2023-04-01T03:14:34;10.50;99.90
73955;DHT22;62306;52.516;13.290;2023-04-01T03:17:01;10.50;99.90
73955;DHT22;62306;52.516;13.290;2023-04-01T03:19:28;10.50;99.90
73955;DHT22;62306;52.516;13.290;2023-04-01T03:21:55;10.60;99.90
73955;DHT22;62306;52.516;13.290;2023-04-01T03:24:22;10.60;99.90
73955;DHT22;62306;52.516;13.290;2023-04-01T03:26:49;10.60;99.90
73955;DHT22;62306;52.516;13.290;2023-04-01T03:29:17;10.70;99.90
73955;DHT22;62306;52.516;13.290;2023-04-01T03:31:44;10.70;99.90
73955;DHT22;62306;52.516;13.290;2023-04-01T03:34:11;10.70;99.90
73955;DHT22;62306;52.516;13.290;2023-04-01T03:36:38;10.60;99.90
73955;DHT22;62306;52.516;13.290;2023-04-01T03:39:06;10.60;99.90
73955;DHT22;62306;52.516;13.290;2023-04-01T03:41:34;10.60;99.90
73955;DHT22;62306;52.516;13.290;2023-04-01T03:44:01;10.60;99.90
73955;DHT22;62306;52.516;13.290;2023-04-01T03:46:30;10.60;99.90
73955;DHT22;62306;52.516;13.290;2023-04-01T03:48:57;10.70;99.90
73955;DHT22;62306;52.516;13.290;2023-04-01T03:51:24;10.70;99.90
73955;DHT22;62306;52.516;13.290;2023-04-01T03:53:51;10.70;99.90
73955;DHT22;62306;52.516;13.290;2023-04-01T03:56:18;10.60;99.90
73955;DHT22;62306;52.516;13.290;2023-04-01T03:58:45;10.60;99.90
73955;DHT22;62306;52.516;13.290;2023-04-01T04:01:16;10.60;99.90
73955;DHT22;62306;52.516;13.290;2023-04-01T04:03:45;10.60;99.90
73955;DHT22;62306;52.516;13.290;2023-04-01T04:06:12;10.60;99.90
73955;DHT22;62306;52.516;13.290;2023-04-01T04:08:40;10.60;99.90
73955;DHT22;62306;52.516;13.290;2023-04-01T04:11:07;10.60;99.90
73955;DHT22;62306;52.516;13.290;2023-04-01T04:13:34;10.60;99.90
73955;DHT22;62306;52.516;13.290;2023-04-01T04:16:01;10.60;99.90
73955;DHT22;62306;52.516;13.290;2023-04-01T04:18:28;10.60;99.90
73955;DHT22;62306;52.516;13.290;2023-04-01T04:20:56;10.60;99.90
73955;DHT22;62306;52.516;13.290;2023-04-01T04:23:23;10.60;99.90
73955;DHT22;62306;52.516;13.290;2023-04-01T04:25:55;10.60;99.90
73955;DHT22;62306;52.516;13.290;2023-04-01T04:28:22;10.60;99.90
73955;DHT22;62306;52.516;13.290;2023-04-01T04:30:49;10.60;99.90
73955;DHT22;62306;52.516;13.290;2023-04-01T04:33:16;10.60;99.90
73955;DHT22;62306;52.516;13.290;2023-04-01T04:35:44;10.60;99.90
73955;DHT22;62306;52.516;13.290;2023-04-01T04:38:12;9.30;99.90
73955;DHT22;62306;52.516;13.290;2023-04-01T04:40:41;10.60;99.90
73955;DHT22;62306;52.516;13.290;2023-04-01T04:43:10;10.60;99.90
73955;DHT22;62306;52.516;13.290;2023-04-01T04:45:37;10.60;99.90
73955;DHT22;62306;52.516;13.290;2023-04-01T04:48:04;10.60;99.90
73955;DHT22;62306;52.516;13.290;2023-04-01T04:50:31;10.60;99.90
73955;DHT22;62306;52.516;13.290;2023-04-01T04:52:58;10.60;99.90
73955;DHT22;62306;52.516;13.290;2023-04-01T04:55:27;10.60;99.90
73955;DHT22;62306;52.516;13.290;2023-04-01T04:57:54;10.60;99.90
73955;DHT22;62306;52.516;13.290;2023-04-01T05:00:21;10.60;99.90
73955;DHT22;62306;52.516;13.290;2023-04-01T05:02:48;10.50;99.90
73955;DHT22;62306;52.516;13.290;2023-04-01T05:05:15;10.50;99.90
73955;DHT22;62306;52.516;13.290;2023-04-01T05:07:42;10.50;99.90
73955;DHT22;62306;52.516;13.290;2023-04-01T05:10:09;10.60;99.90
73955;DHT22;62306;52.516;13.290;2023-04-01T05:12:37;10.60;99.90
73955;DHT22;62306;52.516;13.290;2023-04-01T05:15:05;10.60;99.90
73955;DHT22;62306;52.516;13.290;2023-04-01T05:17:32;10.70;99.90
73955;DHT22;62306;52.516;13.290;2023-04-01T05:19:59;10.80;99.90
73955;DHT22;62306;52.516;13.290;2023-04-01T05:22:26;10.90;99.90
73955;DHT22;62306;52.516;13.290;2023-04-01T05:24:53;10.90;99.90
73955;DHT22;62306;52.516;13.290;2023-04-01T05:27:20;11.00;99.90
73955;DHT22;62306;52.516;13.290;2023-04-01T05:29:49;11.00;99.90
73955;DHT22;62306;52.516;13.290;2023-04-01T05:32:16;11.10;99.90
73955;DHT22;62306;52.516;13.290;2023-04-01T05:34:43;11.10;99.90
73955;DHT22;62306;52.516;13.290;2023-04-01T05:37:10;11.20;99.90
73955;DHT22;62306;52.516;13.290;2023-04-01T05:39:37;11.30;99.90
73955;DHT22;62306;52.516;13.290;2023-04-01T05:42:06;11.30;99.90
73955;DHT22;62306;52.516;13.290;2023-04-01T05:44:33;11.40;99.90
73955;DHT22;62306;52.516;13.290;2023-04-01T05:47:02;11.40;99.90
73955;DHT22;62306;52.516;13.290;2023-04-01T05:49:29;11.50;99.90
73955;DHT22;62306;52.516;13.290;2023-04-01T05:51:56;11.50;99.90
73955;DHT22;62306;52.516;13.290;2023-04-01T05:54:23;11.50;99.90
73955;DHT22;62306;52.516;13.290;2023-04-01T05:56:50;11.50;99.90
73955;DHT22;62306;52.516;13.290;2023-04-01T05:59:17;11.60;99.90
73955;DHT22;62306;52.516;13.290;2023-04-01T06:01:45;11.60;99.90
73955;DHT22;62306;52.516;13.290;2023-04-01T06:04:16;11.60;99.90
73955;DHT22;62306;52.516;13.290;2023-04-01T06:06:43;11.60;99.90
73955;DHT22;62306;52.516;13.290;2023-04-01T06:09:15;11.60;99.90
73955;DHT22;62306;52.516;13.290;2023-04-01T06:12:07;11.60;99.90
73955;DHT22;62306;52.516;13.290;2023-04-01T06:14:43;11.60;99.90
73955;DHT22;62306;52.516;13.290;2023-04-01T06:17:24;11.60;99.90
73955;DHT22;62306;52.516;13.290;2023-04-01T06:19:59;11.60;99.90
73955;DHT22;62306;52.516;13.290;2023-04-01T06:22:40;11.60;99.90
73955;DHT22;62306;52.516;13.290;2023-04-01T06:25:34;11.60;99.90
73955;DHT22;62306;52.516;13.290;2023-04-01T06:31:02;11.60;99.90
73955;DHT22;62306;52.516;13.290;2023-04-01T06:33:40;11.70;99.90
73955;DHT22;62306;52.516;13.290;2023-04-01T06:36:32;11.60;99.90
73955;DHT22;62306;52.516;13.290;2023-04-01T06:39:22;11.60;99.90
73955;DHT22;62306;52.516;13.290;2023-04-01T06:42:17;11.70;99.90
73955;DHT22;62306;52.516;13.290;2023-04-01T06:44:48;11.70;99.90
73955;DHT22;62306;52.516;13.290;2023-04-01T06:47:28;11.80;99.90
73955;DHT22;62306;52.516;13.290;2023-04-01T06:50:04;11.80;99.90
73955;DHT22;62306;52.516;13.290;2023-04-01T06:52:42;11.80;99.90
73955;DHT22;62306;52.516;13.290;2023-04-01T06:55:24;11.90;99.90
73955;DHT22;62306;52.516;13.290;2023-04-01T06:57:54;11.90;99.90
73955;DHT22;62306;52.516;13.290;2023-04-01T07:00:27;11.90;99.90
73955;DHT22;62306;52.516;13.290;2023-04-01T07:03:02;12.00;99.90
73955;DHT22;62306;52.516;13.290;2023-04-01T07:05:32;12.20;99.90
73955;DHT22;62306;52.516;13.290;2023-04-01T07:08:03;12.20;99.90
73955;DHT22;62306;52.516;13.290;2023-04-01T07:10:35;12.20;99.90
73955;DHT22;62306;52.516;13.290;2023-04-01T07:13:05;12.10;99.90
73955;DHT22;62306;52.516;13.290;2023-04-01T07:15:37;12.20;99.90
73955;DHT22;62306;52.516;13.290;2023-04-01T07:18:10;12.20;99.90
73955;DHT22;62306;52.516;13.290;2023-04-01T07:20:38;12.30;99.90
73955;DHT22;62306;52.516;13.290;2023-04-01T07:23:13;12.20;99.90
73955;DHT22;62306;52.516;13.290;2023-04-01T07:25:45;12.30;99.90
73955;DHT22;62306;52.516;13.290;2023-04-01T07:28:15;12.60;99.90
73955;DHT22;62306;52.516;13.290;2023-04-01T07:30:53;12.50;99.90
73955;DHT22;62306;52.516;13.290;2023-04-01T07:33:28;12.60;99.90
73955;DHT22;62306;52.516;13.290;2023-04-01T07:36:03;12.60;99.90
73955;DHT22;62306;52.516;13.290;2023-04-01T07:38:42;12.60;99.90
73955;DHT22;62306;52.516;13.290;2023-04-01T07:41:18;12.80;99.90
73955;DHT22;62306;52.516;13.290;2023-04-01T07:43:59;12.90;99.90
73955;DHT22;62306;52.516;13.290;2023-04-01T07:46:42;12.90;99.90
73955;DHT22;62306;52.516;13.290;2023-04-01T07:49:15;13.00;99.90
73955;DHT22;62306;52.516;13.290;2023-04-01T07:51:47;13.20;99.90
73955;DHT22;62306;52.516;13.290;2023-04-01T07:54:32;13.30;99.80
73955;DHT22;62306;52.516;13.290;2023-04-01T07:57:07;13.30;99.50
73955;DHT22;62306;52.516;13.290;2023-04-01T07:59:42;13.30;99.10
73955;DHT22;62306;52.516;13.290;2023-04-01T08:02:22;13.30;99.50
73955;DHT22;62306;52.516;13.290;2023-04-01T08:04:58;13.20;99.40
73955;DHT22;62306;52.516;13.290;2023-04-01T08:07:31;13.10;99.80
73955;DHT22;62306;52.516;13.290;2023-04-01T08:10:04;13.10;99.90
73955;DHT22;62306;52.516;13.290;2023-04-01T08:12:42;13.00;99.70
73955;DHT22;62306;52.516;13.290;2023-04-01T08:15:19;12.80;99.60
73955;DHT22;62306;52.516;13.290;2023-04-01T08:17:55;12.60;99.80
73955;DHT22;62306;52.516;13.290;2023-04-01T08:20:32;12.50;99.90
73955;DHT22;62306;52.516;13.290;2023-04-01T08:23:07;12.40;99.90
73955;DHT22;62306;52.516;13.290;2023-04-01T08:25:42;12.20;99.90
73955;DHT22;62306;52.516;13.290;2023-04-01T08:28:17;12.10;99.90
73955;DHT22;62306;52.516;13.290;2023-04-01T08:30:49;12.00;99.90
73955;DHT22;62306;52.516;13.290;2023-04-01T08:33:21;11.90;99.90
73955;DHT22;62306;52.516;13.290;2023-04-01T08:35:54;11.80;99.90
73955;DHT22;62306;52.516;13.290;2023-04-01T08:38:26;12.50;99.90
73955;DHT22;62306;52.516;13.290;2023-04-01T08:41:01;11.60;99.90
73955;DHT22;62306;52.516;13.290;2023-04-01T08:43:54;11.50;99.90
73955;DHT22;62306;52.516;13.290;2023-04-01T08:46:47;11.50;99.90
73955;DHT22;62306;52.516;13.290;2023-04-01T08:49:37;11.40;99.90
73955;DHT22;62306;52.516;13.290;2023-04-01T08:52:18;11.20;99.90
73955;DHT22;62306;52.516;13.290;2023-04-01T08:58:08;10.80;99.90
73955;DHT22;62306;52.516;13.290;2023-04-01T09:00:46;10.60;99.90
73955;DHT22;62306;52.516;13.290;2023-04-01T09:03:36;10.50;99.90
73955;DHT22;62306;52.516;13.290;2023-04-01T09:06:25;10.40;99.90
73955;DHT22;62306;52.516;13.290;2023-04-01T09:09:07;10.30;99.90
73955;DHT22;62306;52.516;13.290;2023-04-01T09:11:53;10.30;99.90
73955;DHT22;62306;52.516;13.290;2023-04-01T09:14:47;10.30;99.90
73955;DHT22;62306;52.516;13.290;2023-04-01T09:20:42;10.50;99.90
73955;DHT22;62306;52.516;13.290;2023-04-01T09:23:27;10.50;99.90
73955;DHT22;62306;52.516;13.290;2023-04-01T09:28:55;10.60;99.90
73955;DHT22;62306;52.516;13.290;2023-04-01T09:31:56;10.70;99.90
73955;DHT22;62306;52.516;13.290;2023-04-01T09:34:51;10.60;99.90
73955;DHT22;62306;52.516;13.290;2023-04-01T09:37:20;10.40;99.90
73955;DHT22;62306;52.516;13.290;2023-04-01T09:45:47;10.00;99.90
73955;DHT22;62306;52.516;13.290;2023-04-01T09:48:26;10.00;99.90
73955;DHT22;62306;52.516;13.290;2023-04-01T09:51:06;10.10;99.90
73955;DHT22;62306;52.516;13.290;2023-04-01T09:53:56;10.10;99.90
73955;DHT22;62306;52.516;13.290;2023-04-01T10:12:50;9.80;99.90
73955;DHT22;62306;52.516;13.290;2023-04-01T10:15:44;9.80;99.90
73955;DHT22;62306;52.516;13.290;2023-04-01T10:21:57;9.80;99.90
73955;DHT22;62306;52.516;13.290;2023-04-01T10:24:51;9.80;99.90
73955;DHT22;62306;52.516;13.290;2023-04-01T10:27:41;9.70;99.90
73955;DHT22;62306;52.516;13.290;2023-04-01T10:30:48;9.60;99.90
73955;DHT22;62306;52.516;13.290;2023-04-01T10:33:44;9.50;99.90
73955;DHT22;62306;52.516;13.290;2023-04-01T10:36:34;9.40;99.90
73955;DHT22;62306;52.516;13.290;2023-04-01T10:39:39;9.50;99.90
73955;DHT22;62306;52.516;13.290;2023-04-01T10:49:10;9.40;99.90
73955;DHT22;62306;52.516;13.290;2023-04-01T10:54:49;9.20;99.90
73955;DHT22;62306;52.516;13.290;2023-04-01T11:00:53;9.20;99.90
73955;DHT22;62306;52.516;13.290;2023-04-01T11:03:57;9.10;99.90
73955;DHT22;62306;52.516;13.290;2023-04-01T11:06:54;9.00;99.90
73955;DHT22;62306;52.516;13.290;2023-04-01T11:12:46;9.00;99.90
73955;DHT22;62306;52.516;13.290;2023-04-01T11:15:37;9.10;99.90
73955;DHT22;62306;52.516;13.290;2023-04-01T11:21:44;9.40;99.90
73955;DHT22;62306;52.516;13.290;2023-04-01T11:27:29;9.30;99.90
73955;DHT22;62306;52.516;13.290;2023-04-01T11:30:15;9.40;99.90
73955;DHT22;62306;52.516;13.290;2023-04-01T11:32:52;9.30;99.90
73955;DHT22;62306;52.516;13.290;2023-04-01T11:35:35;9.20;99.90
73955;DHT22;62306;52.516;13.290;2023-04-01T11:38:25;9.20;99.90
73955;DHT22;62306;52.516;13.290;2023-04-01T11:40:59;9.20;99.90
73955;DHT22;62306;52.516;13.290;2023-04-01T11:43:36;9.30;99.90
73955;DHT22;62306;52.516;13.290;2023-04-01T11:46:10;9.20;99.90
73955;DHT22;62306;52.516;13.290;2023-04-01T11:48:40;9.20;99.90
73955;DHT22;62306;52.516;13.290;2023-04-01T11:51:37;9.10;99.90
73955;DHT22;62306;52.516;13.290;2023-04-01T11:54:19;9.10;99.90
73955;DHT22;62306;52.516;13.290;2023-04-01T11:57:02;9.10;99.90
73955;DHT22;62306;52.516;13.290;2023-04-01T12:02:29;9.30;99.90
73955;DHT22;62306;52.516;13.290;2023-04-01T12:05:08;9.00;99.90
73955;DHT22;62306;52.516;13.290;2023-04-01T12:07:53;9.00;99.90
73955;DHT22;62306;52.516;13.290;2023-04-01T12:10:28;9.10;99.90
73955;DHT22;62306;52.516;13.290;2023-04-01T12:13:04;9.10;99.90
73955;DHT22;62306;52.516;13.290;2023-04-01T12:15:43;9.00;99.90
73955;DHT22;62306;52.516;13.290;2023-04-01T12:18:20;8.90;99.90
73955;DHT22;62306;52.516;13.290;2023-04-01T12:20:50;8.90;99.90
73955;DHT22;62306;52.516;13.290;2023-04-01T12:23:42;8.90;99.90
73955;DHT22;62306;52.516;13.290;2023-04-01T12:26:22;9.00;99.90
73955;DHT22;62306;52.516;13.290;2023-04-01T12:29:02;9.00;99.90
73955;DHT22;62306;52.516;13.290;2023-04-01T12:31:38;9.00;99.90
73955;DHT22;62306;52.516;13.290;2023-04-01T12:34:41;8.90;99.90
73955;DHT22;62306;52.516;13.290;2023-04-01T12:37:17;8.90;99.90
73955;DHT22;62306;52.516;13.290;2023-04-01T12:40:02;8.90;99.90
73955;DHT22;62306;52.516;13.290;2023-04-01T12:42:53;8.90;99.90
73955;DHT22;62306;52.516;13.290;2023-04-01T12:45:38;8.80;99.90
73955;DHT22;62306;52.516;13.290;2023-04-01T12:48:31;8.80;99.90
73955;DHT22;62306;52.516;13.290;2023-04-01T12:57:38;8.70;99.90
73955;DHT22;62306;52.516;13.290;2023-04-01T13:00:24;8.70;99.90
73955;DHT22;62306;52.516;13.290;2023-04-01T13:03:03;8.70;99.90
73955;DHT22;62306;52.516;13.290;2023-04-01T13:06:02;9.30;99.90
73955;DHT22;62306;52.516;13.290;2023-04-01T13:08:39;8.60;99.90
73955;DHT22;62306;52.516;13.290;2023-04-01T13:11:17;8.50;99.90
73955;DHT22;62306;52.516;13.290;2023-04-01T13:14:17;8.40;99.90
73955;DHT22;62306;52.516;13.290;2023-04-01T13:16:54;8.30;99.90
73955;DHT22;62306;52.516;13.290;2023-04-01T13:19:31;8.30;99.90
73955;DHT22;62306;52.516;13.290;2023-04-01T13:22:07;8.20;99.90
73955;DHT22;62306;52.516;13.290;2023-04-01T13:24:41;8.30;99.90
73955;DHT22;62306;52.516;13.290;2023-04-01T13:27:17;8.30;99.90
73955;DHT22;62306;52.516;13.290;2023-04-01T13:29:57;8.40;99.90
73955;DHT22;62306;52.516;13.290;2023-04-01T13:32:33;8.30;99.90
73955;DHT22;62306;52.516;13.290;2023-04-01T13:35:12;8.20;99.90
73955;DHT22;62306;52.516;13.290;2023-04-01T13:38:10;8.20;99.90
73955;DHT22;62306;52.516;13.290;2023-04-01T13:40:48;8.20;99.90
73955;DHT22;62306;52.516;13.290;2023-04-01T13:43:19;8.30;99.90
73955;DHT22;62306;52.516;13.290;2023-04-01T13:46:26;8.30;99.90
73955;DHT22;62306;52.516;13.290;2023-04-01T13:49:16;8.30;99.90
73955;DHT22;62306;52.516;13.290;2023-04-01T13:52:14;8.20;99.90
73955;DHT22;62306;52.516;13.290;2023-04-01T13:57:57;8.00;99.90
73955;DHT22;62306;52.516;13.290;2023-04-01T14:00:35;8.10;99.90
73955;DHT22;62306;52.516;13.290;2023-04-01T14:06:30;8.30;99.90
73955;DHT22;62306;52.516;13.290;2023-04-01T14:09:15;8.30;99.90
73955;DHT22;62306;52.516;13.290;2023-04-01T14:11:51;8.30;99.90
73955;DHT22;62306;52.516;13.290;2023-04-01T14:14:31;8.40;99.90
73955;DHT22;62306;52.516;13.290;2023-04-01T14:17:10;8.40;99.90
73955;DHT22;62306;52.516;13.290;2023-04-01T14:20:02;8.40;99.90
73955;DHT22;62306;52.516;13.290;2023-04-01T14:22:38;8.40;99.90
73955;DHT22;62306;52.516;13.290;2023-04-01T14:25:45;8.30;99.90
73955;DHT22;62306;52.516;13.290;2023-04-01T14:28:25;8.30;99.90
73955;DHT22;62306;52.516;13.290;2023-04-01T14:31:26;8.30;99.90
73955;DHT22;62306;52.516;13.290;2023-04-01T14:34:04;8.20;99.90
73955;DHT22;62306;52.516;13.290;2023-04-01T14:36:45;8.10;99.90
73955;DHT22;62306;52.516;13.290;2023-04-01T14:39:46;8.10;99.90
73955;DHT22;62306;52.516;13.290;2023-04-01T14:42:30;8.20;99.90
73955;DHT22;62306;52.516;13.290;2023-04-01T14:48:23;8.20;99.90
73955;DHT22;62306;52.516;13.290;2023-04-01T14:50:54;8.20;99.90
73955;DHT22;62306;52.516;13.290;2023-04-01T14:53:27;8.20;99.90
73955;DHT22;62306;52.516;13.290;2023-04-01T14:55:57;8.20;99.90
73955;DHT22;62306;52.516;13.290;2023-04-01T14:58:40;8.20;99.90
73955;DHT22;62306;52.516;13.290;2023-04-01T15:01:18;8.20;99.90
73955;DHT22;62306;52.516;13.290;2023-04-01T15:03:53;8.00;99.90
73955;DHT22;62306;52.516;13.290;2023-04-01T15:06:39;7.90;99.90
73955;DHT22;62306;52.516;13.290;2023-04-01T15:09:16;7.80;99.90
73955;DHT22;62306;52.516;13.290;2023-04-01T15:11:54;7.90;99.90
73955;DHT22;62306;52.516;13.290;2023-04-01T15:14:51;7.90;99.90
73955;DHT22;62306;52.516;13.290;2023-04-01T15:17:45;7.90;99.90
73955;DHT22;62306;52.516;13.290;2023-04-01T15:26:21;7.70;99.90
73955;DHT22;62306;52.516;13.290;2023-04-01T15:29:09;7.70;99.90
73955;DHT22;62306;52.516;13.290;2023-04-01T15:31:40;7.70;99.90
73955;DHT22;62306;52.516;13.290;2023-04-01T15:34:29;7.60;99.90
73955;DHT22;62306;52.516;13.290;2023-04-01T15:37:02;7.60;99.90
73955;DHT22;62306;52.516;13.290;2023-04-01T15:39:47;7.60;99.90
73955;DHT22;62306;52.516;13.290;2023-04-01T15:42:23;7.50;99.90
73955;DHT22;62306;52.516;13.290;2023-04-01T15:45:11;7.50;99.90
73955;DHT22;62306;52.516;13.290;2023-04-01T15:47:45;7.50;99.90
73955;DHT22;62306;52.516;13.290;2023-04-01T15:50:42;7.50;99.90
73955;DHT22;62306;52.516;13.290;2023-04-01T15:53:22;7.40;99.90
73955;DHT22;62306;52.516;13.290;2023-04-01T15:55:57;7.30;99.90
73955;DHT22;62306;52.516;13.290;2023-04-01T15:58:41;7.30;99.90
73955;DHT22;62306;52.516;13.290;2023-04-01T16:01:22;7.30;99.90
73955;DHT22;62306;52.516;13.290;2023-04-01T16:03:56;7.30;99.90
73955;DHT22;62306;52.516;13.290;2023-04-01T16:06:45;7.20;99.90
73955;DHT22;62306;52.516;13.290;2023-04-01T16:12:46;7.10;99.90
73955;DHT22;62306;52.516;13.290;2023-04-01T16:15:24;7.10;99.90
73955;DHT22;62306;52.516;13.290;2023-04-01T16:18:13;7.20;99.90
73955;DHT22;62306;52.516;13.290;2023-04-01T16:20:49;7.20;99.90
73955;DHT22;62306;52.516;13.290;2023-04-01T16:23:22;7.20;99.90
73955;DHT22;62306;52.516;13.290;2023-04-01T16:25:55;7.10;99.90
73955;DHT22;62306;52.516;13.290;2023-04-01T16:28:29;7.10;99.90
73955;DHT22;62306;52.516;13.290;2023-04-01T16:31:00;7.10;99.90
73955;DHT22;62306;52.516;13.290;2023-04-01T16:33:38;7.00;99.90
73955;DHT22;62306;52.516;13.290;2023-04-01T16:36:12;7.00;99.90
73955;DHT22;62306;52.516;13.290;2023-04-01T16:38:50;6.90;99.90
73955;DHT22;62306;52.516;13.290;2023-04-01T16:41:23;6.90;99.90
73955;DHT22;62306;52.516;13.290;2023-04-01T16:43:55;6.80;99.90
73955;DHT22;62306;52.516;13.290;2023-04-01T16:46:33;6.90;99.90
73955;DHT22;62306;52.516;13.290;2023-04-01T16:49:24;6.90;99.90
73955;DHT22;62306;52.516;13.290;2023-04-01T16:51:54;6.90;99.90
73955;DHT22;62306;52.516;13.290;2023-04-01T16:54:30;6.90;99.90
73955;DHT22;62306;52.516;13.290;2023-04-01T16:57:04;6.90;99.90
73955;DHT22;62306;52.516;13.290;2023-04-01T16:59:44;6.80;99.90
73955;DHT22;62306;52.516;13.290;2023-04-01T17:02:15;6.70;99.90
73955;DHT22;62306;52.516;13.290;2023-04-01T17:04:46;6.70;99.90
73955;DHT22;62306;52.516;13.290;2023-04-01T17:07:26;6.70;99.90
73955;DHT22;62306;52.516;13.290;2023-04-01T17:10:13;6.60;99.90
73955;DHT22;62306;52.516;13.290;2023-04-01T17:12:47;6.60;99.90
73955;DHT22;62306;52.516;13.290;2023-04-01T17:15:21;6.50;99.90
73955;DHT22;62306;52.516;13.290;2023-04-01T17:17:58;6.50;99.90
73955;DHT22;62306;52.516;13.290;2023-04-01T17:20:40;6.40;99.90
73955;DHT22;62306;52.516;13.290;2023-04-01T17:23:14;6.30;99.90
73955;DHT22;62306;52.516;13.290;2023-04-01T17:26:12;6.20;99.90
73955;DHT22;62306;52.516;13.290;2023-04-01T17:28:48;6.20;99.90
73955;DHT22;62306;52.516;13.290;2023-04-01T17:31:26;6.10;99.90
73955;DHT22;62306;52.516;13.290;2023-04-01T17:34:21;6.10;99.90
73955;DHT22;62306;52.516;13.290;2023-04-01T17:37:06;6.00;99.90
73955;DHT22;62306;52.516;13.290;2023-04-01T17:39:49;5.90;99.90
73955;DHT22;62306;52.516;13.290;2023-04-01T17:42:25;5.90;99.90
73955;DHT22;62306;52.516;13.290;2023-04-01T17:45:01;5.90;99.90
73955;DHT22;62306;52.516;13.290;2023-04-01T17:47:41;5.90;99.90
73955;DHT22;62306;52.516;13.290;2023-04-01T17:50:28;5.90;99.90